sensor_id;sensor_type;location;lat;lon;timestamp;pressure;altitude;pressure_sealevel;temperature;humidity
3697;BME280;60662;48.810;8.872;2023-01-13T09:20:20;96237.25;;;5.82;90.91
3697;BME280;60662;48.810;8.872;2023-01-13T09:28:04;96257.50;;;5.98;89.43
3697;BME280;60662;48.810;8.872;2023-01-13T09:31:21;96259.72;;;6.10;88.50
3697;BME280;60662;48.810;8.872;2023-01-13T09:34:15;96258.47;;;6.22;87.90
3697;BME280;60662;48.810;8.872;2023-01-13T09:35:35;96265.84;;;6.34;88.99
3697;BME280;60662;48.810;8.872;2023-01-13T09:38:27;96260.59;;;6.36;87.83
3697;BME280;60662;48.810;8.872;2023-01-13T10:19:17;96274.22;;;6.68;88.04
3697;BME280;60662;48.810;8.872;2023-01-13T11:30:52;96297.06;;;5.48;91.85
3697;BME280;60662;48.810;8.872;2023-01-13T11:32:10;96297.41;;;5.65;90.57
3697;BME280;60662;48.810;8.872;2023-01-13T11:34:34;96308.91;;;6.38;88.12
3697;BME280;60662;48.810;8.872;2023-01-13T11:35:42;96299.69;;;6.82;86.84
3697;BME280;60662;48.810;8.872;2023-01-13T11:36:50;96294.44;;;7.55;83.58
3697;BME280;60662;48.810;8.872;2023-01-13T11:37:57;96300.41;;;8.01;81.99
3697;BME280;60662;48.810;8.872;2023-01-13T11:39:19;96296.75;;;7.62;82.47
3697;BME280;60662;48.810;8.872;2023-01-13T11:40:40;96301.22;;;8.25;80.84
3697;BME280;60662;48.810;8.872;2023-01-13T11:41:46;96300.38;;;8.45;79.26
3697;BME280;60662;48.810;8.872;2023-01-13T11:43:21;96311.25;;;9.17;77.69
3697;BME280;60662;48.810;8.872;2023-01-13T11:44:35;96301.63;;;8.98;76.41
3697;BME280;60662;48.810;8.872;2023-01-13T11:45:49;96301.28;;;9.46;75.96
3697;BME280;60662;48.810;8.872;2023-01-13T11:46:52;96304.50;;;9.89;74.47
3697;BME280;60662;48.810;8.872;2023-01-13T11:47:57;96309.44;;;9.76;74.36
3697;BME280;60662;48.810;8.872;2023-01-13T11:49:01;96311.09;;;9.96;74.78
3697;BME280;60662;48.810;8.872;2023-01-13T11:50:13;96259.31;;;10.06;73.51
3697;BME280;60662;48.810;8.872;2023-01-13T11:51:28;96291.59;;;9.67;73.15
3697;BME280;60662;48.810;8.872;2023-01-13T11:52:49;96301.75;;;9.54;73.90
3697;BME280;60662;48.810;8.872;2023-01-13T11:55:25;96305.41;;;9.12;75.13
3697;BME280;60662;48.810;8.872;2023-01-13T12:00:28;96305.31;;;10.26;71.86
3697;BME280;60662;48.810;8.872;2023-01-13T12:01:52;96301.59;;;10.13;70.64
3697;BME280;60662;48.810;8.872;2023-01-13T12:05:36;96296.47;;;9.37;73.39
3697;BME280;60662;48.810;8.872;2023-01-13T12:06:40;96303.75;;;10.05;71.74
3697;BME280;60662;48.810;8.872;2023-01-13T12:07:43;96293.28;;;9.87;70.51
3697;BME280;60662;48.810;8.872;2023-01-13T12:16:53;96297.97;;;9.03;70.64
3697;BME280;60662;48.810;8.872;2023-01-13T12:18:23;96305.50;;;9.09;70.84
3697;BME280;60662;48.810;8.872;2023-01-13T12:19:31;96310.44;;;9.15;71.33
3697;BME280;60662;48.810;8.872;2023-01-13T12:20:42;96308.84;;;9.89;70.09
3697;BME280;60662;48.810;8.872;2023-01-13T12:22:44;96306.06;;;9.36;69.72
3697;BME280;60662;48.810;8.872;2023-01-13T12:25:38;96312.94;;;8.36;72.62
3697;BME280;60662;48.810;8.872;2023-01-13T12:26:54;96328.06;;;8.26;71.82
3697;BME280;60662;48.810;8.872;2023-01-13T12:28:08;96324.22;;;8.57;71.06
3697;BME280;60662;48.810;8.872;2023-01-13T12:29:14;96317.41;;;8.95;70.44
3697;BME280;60662;48.810;8.872;2023-01-13T12:31:21;96324.09;;;9.60;68.43
3697;BME280;60662;48.810;8.872;2023-01-13T12:32:32;96320.72;;;9.77;67.79
3697;BME280;60662;48.810;8.872;2023-01-13T12:34:08;96311.53;;;9.49;67.47
3697;BME280;60662;48.810;8.872;2023-01-13T12:35:46;96327.38;;;9.25;66.87
3697;BME280;60662;48.810;8.872;2023-01-13T12:36:50;96323.72;;;9.29;66.69
3697;BME280;60662;48.810;8.872;2023-01-13T12:38:42;96321.16;;;8.88;66.44
3697;BME280;60662;48.810;8.872;2023-01-13T12:44:14;96324.28;;;9.36;66.05
3697;BME280;60662;48.810;8.872;2023-01-13T12:45:24;96335.31;;;9.22;66.47
3697;BME280;60662;48.810;8.872;2023-01-13T12:47:47;96336.81;;;9.47;64.84
3697;BME280;60662;48.810;8.872;2023-01-13T12:51:45;96337.25;;;9.76;65.06
3697;BME280;60662;48.810;8.872;2023-01-13T12:52:59;96348.94;;;9.48;65.07
3697;BME280;60662;48.810;8.872;2023-01-13T12:55:32;96336.00;;;9.46;64.96
3697;BME280;60662;48.810;8.872;2023-01-13T12:56:40;96343.50;;;10.10;65.10
3697;BME280;60662;48.810;8.872;2023-01-13T13:00:18;96329.88;;;9.86;64.45
3697;BME280;60662;48.810;8.872;2023-01-13T13:01:34;96328.53;;;9.39;64.20
3697;BME280;60662;48.810;8.872;2023-01-13T13:02:41;96322.75;;;9.11;65.76
3697;BME280;60662;48.810;8.872;2023-01-13T13:04:07;96343.34;;;9.18;65.77
3697;BME280;60662;48.810;8.872;2023-01-13T13:06:21;96332.59;;;9.44;65.53
3697;BME280;60662;48.810;8.872;2023-01-13T13:07:37;96327.25;;;9.28;65.06
3697;BME280;60662;48.810;8.872;2023-01-13T13:09:51;96322.22;;;9.24;66.36
3697;BME280;60662;48.810;8.872;2023-01-13T13:11:00;96322.25;;;9.62;65.53
3697;BME280;60662;48.810;8.872;2023-01-13T13:12:31;96328.91;;;9.10;65.56
3697;BME280;60662;48.810;8.872;2023-01-13T13:14:12;96329.94;;;9.06;65.55
3697;BME280;60662;48.810;8.872;2023-01-13T13:15:22;96328.66;;;8.75;65.57
3697;BME280;60662;48.810;8.872;2023-01-13T13:18:31;96337.06;;;9.22;65.98
3697;BME280;60662;48.810;8.872;2023-01-13T13:24:40;96332.19;;;10.28;63.77
3697;BME280;60662;48.810;8.872;2023-01-13T13:26:00;96331.97;;;9.77;64.03
3697;BME280;60662;48.810;8.872;2023-01-13T13:27:19;96327.88;;;8.94;65.47
3697;BME280;60662;48.810;8.872;2023-01-13T13:28:22;96328.53;;;8.99;66.33
3697;BME280;60662;48.810;8.872;2023-01-13T13:29:34;96335.75;;;8.51;67.90
3697;BME280;60662;48.810;8.872;2023-01-13T13:30:47;96343.72;;;8.24;68.44
3697;BME280;60662;48.810;8.872;2023-01-13T13:33:26;96350.22;;;7.68;71.57
3697;BME280;60662;48.810;8.872;2023-01-13T13:36:12;96349.88;;;7.06;72.73
3697;BME280;60662;48.810;8.872;2023-01-13T13:39:21;96364.28;;;6.64;74.55
3697;BME280;60662;48.810;8.872;2023-01-13T13:40:45;96360.25;;;6.56;76.20
3697;BME280;60662;48.810;8.872;2023-01-13T13:42:12;96364.88;;;6.46;75.83
3697;BME280;60662;48.810;8.872;2023-01-13T14:02:23;96428.41;;;5.11;88.39
3697;BME280;60662;48.810;8.872;2023-01-13T14:03:30;96433.31;;;5.20;89.29
3697;BME280;60662;48.810;8.872;2023-01-13T14:08:48;96458.47;;;5.15;89.76
3697;BME280;60662;48.810;8.872;2023-01-13T14:09:52;96452.94;;;5.29;89.50
3697;BME280;60662;48.810;8.872;2023-01-13T14:10:54;96443.84;;;5.77;88.28
3697;BME280;60662;48.810;8.872;2023-01-13T14:12:18;96442.00;;;6.41;85.49
3697;BME280;60662;48.810;8.872;2023-01-13T14:14:22;96435.91;;;6.95;83.17
3697;BME280;60662;48.810;8.872;2023-01-13T14:15:31;96422.63;;;6.79;80.65
3697;BME280;60662;48.810;8.872;2023-01-13T14:16:36;96436.56;;;6.77;80.91
3697;BME280;60662;48.810;8.872;2023-01-13T14:17:38;96421.94;;;6.19;82.85
3697;BME280;60662;48.810;8.872;2023-01-13T14:18:44;96436.41;;;6.26;83.82
3697;BME280;60662;48.810;8.872;2023-01-13T14:19:51;96440.66;;;5.99;84.76
3697;BME280;60662;48.810;8.872;2023-01-13T14:20:57;96439.16;;;5.60;85.41
3697;BME280;60662;48.810;8.872;2023-01-13T14:22:01;96434.03;;;5.26;86.77
3697;BME280;60662;48.810;8.872;2023-01-13T14:23:04;96456.50;;;5.25;87.06
3697;BME280;60662;48.810;8.872;2023-01-13T14:24:14;96466.44;;;5.40;87.38
3697;BME280;60662;48.810;8.872;2023-01-13T14:25:27;96462.31;;;5.35;87.72
3697;BME280;60662;48.810;8.872;2023-01-13T14:26:31;96461.38;;;5.69;86.75
3697;BME280;60662;48.810;8.872;2023-01-13T14:27:32;96448.91;;;6.13;84.65
3697;BME280;60662;48.810;8.872;2023-01-13T14:28:37;96431.75;;;6.37;83.46
3697;BME280;60662;48.810;8.872;2023-01-13T14:29:39;96438.41;;;6.45;82.42
3697;BME280;60662;48.810;8.872;2023-01-13T14:30:41;96435.25;;;6.63;82.15
3697;BME280;60662;48.810;8.872;2023-01-13T14:31:43;96439.31;;;6.15;83.56
3697;BME280;60662;48.810;8.872;2023-01-13T14:32:44;96439.72;;;5.70;85.85
3697;BME280;60662;48.810;8.872;2023-01-13T14:45:25;96453.44;;;4.76;88.54
3697;BME280;60662;48.810;8.872;2023-01-13T14:46:41;96456.59;;;4.87;87.93
3697;BME280;60662;48.810;8.872;2023-01-13T14:47:49;96459.56;;;5.06;86.97
3697;BME280;60662;48.810;8.872;2023-01-13T14:48:59;96457.56;;;5.18;86.86
3697;BME280;60662;48.810;8.872;2023-01-13T14:50:11;96466.34;;;5.12;86.77
3697;BME280;60662;48.810;8.872;2023-01-13T14:51:22;96465.72;;;5.02;86.94
3697;BME280;60662;48.810;8.872;2023-01-13T14:52:27;96460.13;;;4.85;87.01
3697;BME280;60662;48.810;8.872;2023-01-13T15:09:39;96482.16;;;4.65;88.63
3697;BME280;60662;48.810;8.872;2023-01-13T15:10:50;96506.03;;;4.77;88.84
3697;BME280;60662;48.810;8.872;2023-01-13T15:11:54;96516.75;;;4.97;88.77
3697;BME280;60662;48.810;8.872;2023-01-13T15:13:00;96513.09;;;5.06;87.98
3697;BME280;60662;48.810;8.872;2023-01-13T15:14:08;96518.50;;;5.31;87.90
3697;BME280;60662;48.810;8.872;2023-01-13T15:15:35;96523.22;;;5.50;86.70
3697;BME280;60662;48.810;8.872;2023-01-13T15:16:38;96514.53;;;5.51;86.32
3697;BME280;60662;48.810;8.872;2023-01-13T15:17:39;96521.13;;;5.63;85.86
3697;BME280;60662;48.810;8.872;2023-01-13T15:18:43;96529.41;;;5.76;86.28
3697;BME280;60662;48.810;8.872;2023-01-13T15:19:44;96526.09;;;5.70;86.00
3697;BME280;60662;48.810;8.872;2023-01-13T15:20:46;96520.00;;;5.73;85.71
3697;BME280;60662;48.810;8.872;2023-01-13T15:21:47;96527.81;;;5.71;86.05
3697;BME280;60662;48.810;8.872;2023-01-13T15:22:50;96521.34;;;5.55;86.09
3697;BME280;60662;48.810;8.872;2023-01-13T15:23:51;96523.47;;;5.39;86.66
3697;BME280;60662;48.810;8.872;2023-01-13T15:24:53;96504.13;;;5.19;87.67
